PDT,Max TemperatureF,Mean TemperatureF,Min TemperatureF,Max Dew PointF,MeanDew PointF,Min DewpointF,Max Humidity, Mean Humidity, Min Humidity, Max Sea Level PressureIn, Mean Sea Level PressureIn, Min Sea Level PressureIn, Max VisibilityMiles, Mean VisibilityMiles, Min VisibilityMiles, Max Wind SpeedMPH, Mean Wind SpeedMPH, Max Gust SpeedMPH,PrecipitationIn, CloudCover, Events, WindDirDegrees
2012-10-1,83,70,58,57,47,39,78,53,28,30.26,30.17,30.09,10,10,10,20,10,28,0.00,0,,347
2012-10-2,71,58,49,52,45,37,83,63,42,30.19,30.16,30.11,10,10,10,15,7,23,0.00,3,,336
2012-10-3,72,56,40,37,31,24,70,44,17,30.29,30.23,30.17,10,10,10,17,7,23,0.00,1,,2
2012-10-4,74,56,38,34,29,20,70,42,14,30.21,30.18,30.16,10,10,10,15,5,22,0.00,0,,360
2012-10-5,74,55,36,33,27,19,70,42,13,30.22,30.18,30.13,10,10,6,21,5,26,0.00,0,,2
2012-10-6,77,55,36,31,24,13,70,40,9,30.19,30.13,30.06,10,10,9,16,4,,0.00,0,,301
2012-10-7,81,58,35,37,31,23,70,41,12,30.06,29.98,29.89,10,10,10,8,1,9,0.00,0,,286
2012-10-8,70,53,34,44,37,32,89,60,31,30.05,29.98,29.93,10,10,10,6,1,10,0.00,0,,285
2012-10-9,69,52,36,48,42,37,100,71,42,30.13,30.06,29.99,10,10,9,9,1,12,0.00,2,,7
2012-10-10,64,52,38,50,43,37,100,78,56,30.05,30.00,29.92,10,6,0,12,3,15,0.00,2,Fog,342
2012-10-11,65,50,38,48,42,37,100,76,52,29.97,29.89,29.80,10,7,1,6,1,10,0.00,2,,289
2012-10-12,54,46,41,52,48,39,100,95,89,30.07,29.96,29.86,10,5,1,9,4,14,0.95,8,Rain,143
2012-10-13,63,58,53,57,54,51,93,86,78,30.21,30.17,30.09,10,10,10,10,1,13,T,7,Rain,167
2012-10-14,64,58,50,57,55,50,100,87,73,30.15,30.05,29.93,10,9,1,15,6,20,0.29,7,Rain,157
2012-10-15,63,59,55,61,59,54,100,94,87,29.96,29.81,29.67,10,9,4,15,4,20,0.28,8,Rain,153
2012-10-16,63,54,39,59,47,40,93,71,48,30.30,30.04,29.69,10,10,9,16,3,22,0.01,5,Rain,299
2012-10-17,62,50,39,46,42,38,100,76,51,30.33,30.28,30.19,10,6,0,8,2,10,0.00,4,Fog,310
2012-10-18,69,52,37,54,44,36,100,74,48,30.20,30.04,29.88,10,7,0,8,2,12,0.10,1,Fog-Rain,174
2012-10-19,57,53,48,54,51,45,96,87,77,29.92,29.86,29.80,10,8,2,13,3,20,0.22,8,Rain,189
2012-10-20,56,46,38,46,41,37,100,83,66,29.98,29.93,29.88,10,8,0,15,3,20,0.25,5,Fog-Rain,262
2012-10-21,53,44,38,44,41,37,100,82,63,29.92,29.86,29.74,10,9,2,8,1,14,0.07,7,Rain,210
2012-10-22,52,46,42,45,42,39,100,92,83,29.74,29.62,29.57,10,8,1,13,4,18,0.51,7,Rain-Thunderstorm,169
2012-10-23,52,46,40,43,40,39,92,79,66,29.87,29.83,29.72,10,9,3,13,5,20,0.26,7,Rain,167
2012-10-24,52,48,43,44,42,41,96,80,63,30.17,29.95,29.86,10,9,5,13,4,17,0.14,8,Rain,163
2012-10-25,53,42,34,42,38,34,100,86,71,30.43,30.34,30.19,10,8,0,6,0,7,0.01,4,Fog,273
2012-10-26,50,44,40,47,44,39,100,95,89,30.30,30.16,30.12,10,3,0,9,1,12,0.06,8,Fog-Rain,130
2012-10-27,58,49,41,57,48,39,100,96,92,30.13,30.00,29.85,10,5,1,10,4,15,0.46,7,Rain,135
2012-10-28,61,57,53,57,53,50,100,92,84,29.96,29.90,29.82,10,8,2,14,3,18,0.50,7,Rain,191
2012-10-29,68,59,52,57,55,51,100,82,63,30.04,29.96,29.83,10,9,4,13,4,17,0.53,6,Rain,167
2012-10-30,60,57,54,58,56,53,100,95,90,29.97,29.86,29.77,10,6,3,12,2,15,0.75,8,Rain,135
2012-10-31,58,54,51,56,54,51,100,90,80,29.76,29.70,29.66,10,7,1,17,4,25,0.57,8,Rain,150